createdAt,value
2022-09-09T00:02:25.244Z,100791.41
2022-09-09T00:07:53.351Z,100763.41
2022-09-09T00:13:01.558Z,100796.13
2022-09-09T00:18:17.140Z,100795.44
2022-09-09T00:23:27.354Z,100791.38
2022-09-09T00:28:33.878Z,100743.81
2022-09-09T00:33:36.491Z,100746.66
2022-09-09T00:38:43.930Z,100716.09
2022-09-09T00:43:55.576Z,100761.00
2022-09-09T00:49:07.011Z,100791.63
2022-09-09T00:54:34.276Z,100785.84
2022-09-09T01:00:12.311Z,100790.63
2022-09-09T01:05:22.122Z,100782.44
2022-09-09T01:10:36.105Z,100787.66
2022-09-09T01:15:40.707Z,100775.34
2022-09-09T01:21:04.482Z,100789.38
2022-09-09T01:26:31.480Z,100732.09
2022-09-09T01:31:42.860Z,100760.38
2022-09-09T01:36:48.295Z,100792.44
2022-09-09T01:41:50.778Z,100735.19
2022-09-09T01:46:53.172Z,100771.22
2022-09-09T01:51:57.786Z,100786.69
2022-09-09T01:57:12.013Z,100776.88
2022-09-09T02:02:28.657Z,100751.38
2022-09-09T02:07:43.485Z,100769.56
2022-09-09T02:12:49.923Z,100775.53
2022-09-09T02:17:54.731Z,100741.03
2022-09-09T02:22:58.709Z,100723.03
2022-09-09T02:28:01.815Z,100705.06
2022-09-09T02:33:07.968Z,100737.75
2022-09-09T02:38:14.756Z,100742.09
2022-09-09T02:43:20.214Z,100714.16
2022-09-09T02:48:31.762Z,100768.50
2022-09-09T02:54:02.914Z,100751.09
2022-09-09T02:59:06.596Z,100708.94
2022-09-09T03:04:08.947Z,100721.13
2022-09-09T03:09:12.041Z,100731.66
2022-09-09T03:14:14.456Z,100752.13
2022-09-09T03:19:16.860Z,100725.06
2022-09-09T03:24:19.195Z,100729.41
2022-09-09T03:29:21.513Z,100731.06
2022-09-09T03:34:23.831Z,100733.78
2022-09-09T03:39:26.330Z,100753.41
2022-09-09T03:44:28.623Z,100754.94
2022-09-09T03:49:30.924Z,100746.47
2022-09-09T03:54:33.219Z,100768.69
2022-09-09T03:59:36.558Z,100762.91
2022-09-09T04:04:38.884Z,100772.13
2022-09-09T04:09:41.238Z,100761.94
2022-09-09T04:14:43.624Z,100752.97
2022-09-09T04:19:46.194Z,100786.44
2022-09-09T04:24:48.993Z,100748.72
2022-09-09T04:36:05.728Z,100746.00
2022-09-09T04:41:09.005Z,100763.28
2022-09-09T04:46:11.746Z,100778.75
2022-09-09T04:51:15.532Z,100795.41
2022-09-09T04:56:19.633Z,100768.59
2022-09-09T05:01:23.680Z,100797.78
2022-09-09T05:06:26.450Z,100806.34
2022-09-09T05:11:31.423Z,100789.28
2022-09-09T05:16:33.841Z,100802.41
2022-09-09T05:21:36.456Z,100806.63
2022-09-09T05:26:38.854Z,100752.38
2022-09-09T05:31:41.382Z,100785.88
2022-09-09T05:36:43.777Z,100788.44
2022-09-09T05:41:46.219Z,100812.50
2022-09-09T05:46:49.150Z,100768.00
2022-09-09T05:51:52.324Z,100791.91
2022-09-09T05:56:55.255Z,100747.72
2022-09-09T06:01:57.832Z,100788.44
2022-09-09T06:07:00.543Z,100787.13
2022-09-09T06:12:03.213Z,100785.72
2022-09-09T06:17:06.619Z,100774.56
2022-09-09T06:22:09.008Z,100769.00
2022-09-09T06:27:12.290Z,100798.44
2022-09-09T06:32:14.700Z,100789.31
2022-09-09T06:37:17.248Z,100785.16
2022-09-09T06:42:20.300Z,100764.41
2022-09-09T06:47:22.716Z,100745.22
2022-09-09T06:52:26.230Z,100778.88
2022-09-09T06:57:43.902Z,100794.19
2022-09-09T07:02:46.303Z,100805.75
2022-09-09T07:07:48.715Z,100767.22
2022-09-09T07:12:57.033Z,100790.97
2022-09-09T07:18:03.630Z,100779.81
2022-09-09T07:23:05.964Z,100785.34
2022-09-09T07:28:09.137Z,100783.13
2022-09-09T07:33:11.494Z,100771.72
2022-09-09T07:38:13.822Z,100795.25
2022-09-09T07:43:18.996Z,100781.44
2022-09-09T07:48:21.385Z,100754.63
2022-09-09T07:53:24.616Z,100791.34
2022-09-09T07:58:27.144Z,100778.81
2022-09-09T08:03:29.777Z,100790.13
2022-09-09T08:08:32.438Z,100810.19
2022-09-09T08:13:36.891Z,100789.91
2022-09-09T08:18:40.695Z,100791.34
2022-09-09T08:23:46.743Z,100790.31
2022-09-09T08:28:51.603Z,100773.34
2022-09-09T08:33:54.009Z,100752.78
2022-09-09T08:38:58.492Z,100795.81
2022-09-09T08:44:32.532Z,100792.81
2022-09-09T08:50:14.340Z,100778.28
2022-09-09T08:55:49.886Z,100795.03
2022-09-09T09:01:10.353Z,100787.59
2022-09-09T09:06:39.685Z,100766.22
2022-09-09T09:11:54.438Z,100756.84
2022-09-09T09:17:02.866Z,100745.59
2022-09-09T09:22:23.033Z,100773.78
2022-09-09T09:27:36.451Z,100748.09
2022-09-09T09:32:44.580Z,100734.59
2022-09-09T09:43:23.644Z,100735.72
2022-09-09T09:48:31.473Z,100707.13
2022-09-09T09:53:40.027Z,100700.81
2022-09-09T09:58:56.939Z,100712.94
2022-09-09T10:04:18.531Z,100726.28
2022-09-09T10:09:28.583Z,100692.63
2022-09-09T10:15:04.304Z,100685.44
2022-09-09T10:20:39.130Z,100710.88
2022-09-09T10:26:22.477Z,100712.72
2022-09-09T10:31:46.208Z,100710.13
2022-09-09T10:36:52.605Z,100647.84
2022-09-09T10:42:09.569Z,100710.66
2022-09-09T10:47:28.319Z,100697.38
2022-09-09T10:52:50.789Z,100676.78
2022-09-09T10:57:55.603Z,100681.38
2022-09-09T11:02:58.967Z,100667.06
2022-09-09T11:08:08.502Z,100655.56
2022-09-09T11:13:24.457Z,100657.22
2022-09-09T11:18:28.091Z,100629.00
2022-09-09T11:23:41.999Z,100637.09
2022-09-09T11:29:05.662Z,100634.88
2022-09-09T11:34:20.502Z,100618.25
2022-09-09T11:39:32.266Z,100605.66
2022-09-09T11:44:35.110Z,100601.78
2022-09-09T11:49:40.812Z,100598.47
2022-09-09T11:54:51.739Z,100571.19
2022-09-09T11:59:54.702Z,100581.88
2022-09-09T12:05:07.556Z,100544.97
2022-09-09T12:10:10.009Z,100559.06
2022-09-09T12:15:13.574Z,100547.84
2022-09-09T12:20:19.716Z,100528.75
2022-09-09T12:25:34.356Z,100517.91
2022-09-09T12:31:06.119Z,100540.75
2022-09-09T12:36:17.333Z,100514.91
2022-09-09T12:41:27.535Z,100532.66
2022-09-09T12:46:47.762Z,100519.38
2022-09-09T12:51:51.068Z,100508.75
2022-09-09T12:56:59.705Z,100488.69
2022-09-09T13:02:02.774Z,100479.31
2022-09-09T13:07:11.562Z,100500.47
2022-09-09T13:12:24.970Z,100489.72
2022-09-09T13:17:32.318Z,100487.34
2022-09-09T13:22:39.562Z,100452.94
2022-09-09T13:27:58.118Z,100458.28
2022-09-09T13:33:18.963Z,100467.06
2022-09-09T13:38:27.500Z,100428.31
2022-09-09T13:43:51.778Z,100454.41
2022-09-09T13:49:11.883Z,100458.75
2022-09-09T13:54:16.805Z,100453.16
2022-09-09T13:59:30.632Z,100445.59
2022-09-09T14:04:42.746Z,100427.16
2022-09-09T14:09:45.882Z,100437.22
2022-09-09T14:14:48.472Z,100441.91
2022-09-09T14:19:50.825Z,100423.56
2022-09-09T14:24:56.378Z,100398.72
2022-09-09T14:29:59.440Z,100418.50
2022-09-09T14:35:02.027Z,100439.41
2022-09-09T14:40:04.633Z,100403.72
2022-09-09T14:45:07.890Z,100395.09
2022-09-09T14:50:10.615Z,100369.44
2022-09-09T14:55:12.975Z,100396.19
2022-09-09T15:00:15.574Z,100375.72
2022-09-09T15:05:18.656Z,100372.16
2022-09-09T15:10:21.157Z,100401.78
2022-09-09T15:15:23.643Z,100410.66
2022-09-09T15:20:37.075Z,100410.59
2022-09-09T15:25:56.050Z,100361.22
2022-09-09T15:30:59.936Z,100408.69
2022-09-09T15:36:02.604Z,100332.50
2022-09-09T15:41:05.310Z,100333.63
2022-09-09T15:46:28.940Z,100422.50
2022-09-09T15:51:42.172Z,100406.16
2022-09-09T15:56:46.993Z,100414.31
2022-09-09T16:01:52.679Z,100397.06
2022-09-09T16:07:06.094Z,100426.69
2022-09-09T16:12:09.504Z,100417.59
2022-09-09T16:17:12.769Z,100377.00
2022-09-09T16:22:17.374Z,100400.13
2022-09-09T16:27:20.030Z,100413.03
2022-09-09T16:32:22.577Z,100406.72
2022-09-09T16:37:24.971Z,100368.97
2022-09-09T16:42:27.393Z,100358.31
2022-09-09T16:47:29.758Z,100408.78
2022-09-09T16:52:32.159Z,100394.69
2022-09-09T16:57:34.489Z,100395.84
2022-09-09T17:02:36.862Z,100421.03
2022-09-09T17:07:40.335Z,100387.75
2022-09-09T17:12:42.868Z,100408.84
2022-09-09T17:17:46.569Z,100393.56
2022-09-09T17:22:49.304Z,100443.25
2022-09-09T17:27:52.573Z,100417.25
2022-09-09T17:32:57.531Z,100445.03
2022-09-09T17:38:00.199Z,100413.28
2022-09-09T17:43:03.007Z,100467.50
2022-09-09T17:48:07.987Z,100445.31
2022-09-09T17:53:11.896Z,100399.84
2022-09-09T17:58:17.084Z,100402.94
2022-09-09T18:03:19.713Z,100487.75
2022-09-09T18:08:22.139Z,100494.44
2022-09-09T18:13:26.360Z,100511.41
2022-09-09T18:18:40.896Z,100402.19
2022-09-09T18:23:53.254Z,100350.91
2022-09-09T18:28:58.164Z,100424.41
2022-09-09T18:34:03.623Z,100458.72
2022-09-09T18:39:08.106Z,100354.03
2022-09-09T18:44:21.210Z,100299.66
2022-09-09T18:49:25.309Z,100546.84
2022-09-09T18:54:34.703Z,100539.81
2022-09-09T18:59:37.311Z,100496.59
2022-09-09T19:04:39.942Z,100564.78
2022-09-09T19:09:43.271Z,100485.47
2022-09-09T19:14:46.042Z,100487.91
2022-09-09T19:19:52.161Z,100507.31
2022-09-09T19:25:04.199Z,100465.78
2022-09-09T19:30:08.011Z,100544.53
2022-09-09T19:35:11.914Z,100555.25
2022-09-09T19:40:20.944Z,100548.13
2022-09-09T19:45:23.845Z,100407.25
2022-09-09T19:50:26.836Z,100476.53
2022-09-09T19:55:29.606Z,100400.72
2022-09-09T20:00:32.126Z,100353.69
2022-09-09T20:05:35.162Z,100353.09
2022-09-09T20:10:37.971Z,100363.00
2022-09-09T20:15:40.806Z,100431.91
2022-09-09T20:20:43.849Z,100462.53
2022-09-09T20:25:46.336Z,100452.16
2022-09-09T20:30:52.959Z,100507.72
2022-09-09T20:35:55.568Z,100417.94
2022-09-09T20:40:57.972Z,100425.91
2022-09-09T20:46:03.896Z,100475.69
2022-09-09T20:51:07.416Z,100493.50
2022-09-09T20:56:10.937Z,100483.09
2022-09-09T21:01:17.595Z,100471.34
2022-09-09T21:06:21.119Z,100527.75
2022-09-09T21:11:26.467Z,100521.47
2022-09-09T21:16:28.838Z,100490.81
2022-09-09T21:21:31.942Z,100490.53
2022-09-09T21:26:34.422Z,100458.50
2022-09-09T21:31:37.919Z,100465.91
2022-09-09T21:36:41.436Z,100493.25
2022-09-09T21:41:57.663Z,100513.81
2022-09-09T21:47:00.219Z,100529.69
2022-09-09T21:52:03.739Z,100546.66
2022-09-09T21:57:06.204Z,100513.53
2022-09-09T22:02:10.522Z,100521.47
2022-09-09T22:07:12.992Z,100510.19
2022-09-09T22:12:15.551Z,100512.41
2022-09-09T22:17:18.149Z,100509.63
2022-09-09T22:22:20.914Z,100492.38
2022-09-09T22:27:23.356Z,100525.78
2022-09-09T22:32:26.239Z,100507.16
2022-09-09T22:37:28.561Z,100506.81
2022-09-09T22:42:31.309Z,100501.09
2022-09-09T22:47:34.527Z,100467.34
2022-09-09T22:52:37.622Z,100504.25
2022-09-09T22:57:39.955Z,100530.00
2022-09-09T23:02:42.411Z,100524.75
2022-09-09T23:07:45.452Z,100504.22
2022-09-09T23:12:48.345Z,100497.63
2022-09-09T23:17:52.703Z,100480.88
2022-09-09T23:22:55.361Z,100438.69
2022-09-09T23:27:59.097Z,100485.56
2022-09-09T23:33:01.755Z,100454.34
2022-09-09T23:38:04.070Z,100457.63
2022-09-09T23:43:07.654Z,100444.13
2022-09-09T23:48:10.013Z,100494.78
2022-09-09T23:53:16.308Z,100461.25
2022-09-09T23:58:18.784Z,100495.41
